TAF and METAR

Could not understand the following METAR

YWHA 141500Z AUTO 21012KT //// // BKN009 BKN013 OVC025 16/16 Q1006
No TAF available for Whyalla Airport
Whyalla Airport in Australia at 13m

Latest 5 airports